Time;durP1;ratioP1;P1;durP2;ratioP2;P2;SDS_P1;SDS_P2;PMS_P1;PMS_P2;Temp;Humidity;BMP_temperature;BMP_pressure;BME280_temperature;BME280_humidity;BME280_pressure;Samples;Min_cycle;Max_cycle;Signal;HPM_P1;HPM_P2
2023/01/07 06:12:07;;;;;;;232.65;126.80;;;26.10;2201.60;;;;;;5049765;23;20054;-80
2023/01/07 06:17:24;;;;;;;311.75;166.10;;;26.20;2201.60;;;;;;4958841;29;20067;-79
2023/01/07 06:48:44;;;;;;;114.75;63.42;;;26.30;2201.60;;;;;;4915847;29;20063;-81
2023/01/07 06:51:50;;;;;;;111.32;62.80;;;26.20;2201.60;;;;;;4914305;29;20072;-81
2023/01/07 06:55:25;;;;;;;195.77;104.45;;;26.30;2201.60;;;;;;4897436;29;20041;-80
2023/01/07 06:58:32;;;;;;;190.23;100.25;;;26.30;2201.60;;;;;;4938242;29;20038;-80
2023/01/07 07:05:03;;;;;;;141.30;83.65;;;26.50;2201.60;;;;;;4946522;29;20039;-80
2023/01/07 07:17:46;;;;;;;220.80;127.87;;;26.50;2201.60;;;;;;4254540;28;20904357;-81
2023/01/07 07:20:32;;;;;;;231.82;139.82;;;51.30;2227.20;;;;;;4903745;29;20276;-78
2023/01/07 07:30:30;;;;;;;168.05;102.40;;;51.30;2227.20;;;;;;4849497;29;20041;-79
2023/01/07 07:33:56;;;;;;;148.02;90.78;;;51.30;2227.20;;;;;;4759732;30;20060;-79
2023/01/07 07:37:21;;;;;;;219.50;128.00;;;51.30;2227.20;;;;;;4759392;30;20093;-78
2023/01/07 07:40:38;;;;;;;175.95;98.43;;;51.20;2227.20;;;;;;4741204;30;20061;-79
2023/01/07 07:43:26;;;;;;;218.55;121.07;;;51.50;2227.20;;;;;;4738449;30;20073;-78
2023/01/07 07:45:56;;;;;;;188.40;102.03;;;51.60;2227.20;;;;;;4741310;30;20042;-77
2023/01/07 07:48:58;;;;;;;166.85;89.18;;;51.70;2227.20;;;;;;4722466;30;20036;-79
2023/01/07 07:51:45;;;;;;;131.00;83.40;;;51.80;2227.20;;;;;;4720968;30;20515;-79
2023/01/07 08:22:10;;;;;;;98.45;60.45;;;77.10;2227.20;;;;;;4943799;29;20087;-81
2023/01/07 08:24:37;;;;;;;89.72;55.17;;;77.10;2227.20;;;;;;4934876;29;20032;-81
2023/01/07 08:27:11;;;;;;;83.57;56.28;;;77.30;2227.20;;;;;;4933736;29;20496;-85
2023/01/07 08:30:16;;;;;;;95.05;61.88;;;77.30;2227.20;;;;;;4933202;29;20176;-81
2023/01/07 08:33:02;;;;;;;85.43;54.85;;;77.40;2227.20;;;;;;4926058;29;20040;-82
2023/01/07 08:42:42;;;;;;;67.88;43.38;;;102.40;2227.20;;;;;;4888695;29;20039;-81
2023/01/07 08:55:53;;;;;;;56.78;38.83;;;102.70;2227.20;;;;;;4935706;29;20071;-88
2023/01/07 09:02:21;;;;;;;55.90;37.67;;;102.90;2227.20;;;;;;4911373;29;20053;-87
2023/01/07 09:06:10;;;;;;;45.97;34.03;;;103.10;2227.20;;;;;;4858635;29;20109;-90
2023/01/07 09:09:48;;;;;;;43.03;29.85;;;103.00;2227.20;;;;;;4808339;29;20035;-89
2023/01/07 09:15:59;;;;;;;42.90;28.85;;;103.20;2227.20;;;;;;4806334;29;20034;-84
2023/01/07 09:18:50;;;;;;;47.40;32.42;;;103.30;2227.20;;;;;;4781974;29;20047;-85
2023/01/07 09:21:47;;;;;;;85.15;54.78;;;128.00;2252.80;;;;;;4798092;29;20133;-85
2023/01/07 09:34:26;;;;;;;49.78;34.42;;;128.70;2252.80;;;;;;4781114;30;20054;-90
2023/01/07 09:37:28;;;;;;;45.08;30.75;;;128.90;2252.80;;;;;;4812597;29;20105;-90
2023/01/07 09:43:42;;;;;;;70.93;50.30;;;153.80;2252.80;;;;;;4833646;29;20033;-91
2023/01/07 09:46:08;;;;;;;;;;;154.10;2252.80;;;;;;4794678;29;20049;-91
2023/01/07 09:48:42;;;;;;;56.53;37.20;;;154.10;2252.80;;;;;;4809877;29;19909;-92
2023/01/07 09:51:31;;;;;;;42.95;29.02;;;154.10;2252.80;;;;;;4810270;29;20237;-91
2023/01/07 09:54:01;;;;;;;41.60;28.13;;;154.40;2252.80;;;;;;4809919;29;20079;-90
2023/01/07 09:56:30;;;;;;;42.53;28.38;;;154.40;2252.80;;;;;;4820222;29;20128;-93
2023/01/07 09:58:57;;;;;;;43.65;31.15;;;;;;;;;;4828009;29;20048;-91
2023/01/07 10:01:26;;;;;;;58.80;37.22;;;;;;;;;;4855214;29;20044;-91
2023/01/07 10:03:52;;;;;;;58.83;35.80;;;;;;;;;;4881774;29;20035;-90
2023/01/07 10:06:26;;;;;;;53.28;33.38;;;;;;;;;;4881803;29;20036;-91
2023/01/07 10:09:11;;;;;;;51.00;32.97;;;;;;;;;;4881735;29;20028;-90
2023/01/07 10:11:37;;;;;;;35.97;23.88;;;;;;;;;;4882252;29;20056;-92
2023/01/07 10:14:03;;;;;;;53.90;32.20;;;;;;;;;;4897187;29;20047;-88
2023/01/07 10:16:43;;;;;;;143.70;64.05;;;;;;;;;;4935668;29;20038;-89
2023/01/07 10:19:32;;;;;;;67.78;41.25;;;;;;;;;;4935540;29;20054;-91
2023/01/07 10:22:02;;;;;;;58.78;37.25;;;;;;;;;;4936209;29;20459;-90
2023/01/07 10:24:36;;;;;;;45.63;32.00;;;204.90;2252.80;;;;;;4936093;29;20028;-90
2023/01/07 10:27:10;;;;;;;67.35;43.30;;;205.00;2252.80;;;;;;4936614;29;20384;-90
2023/01/07 10:29:42;;;;;;;80.35;52.17;;;205.10;2252.80;;;;;;4939999;29;20107;-90
2023/01/07 10:32:16;;;;;;;62.23;43.50;;;205.30;2252.80;;;;;;4940014;29;20075;-91
2023/01/07 10:34:48;;;;;;;62.47;41.00;;;205.30;2252.80;;;;;;4939447;29;20482;-91
2023/01/07 10:37:26;;;;;;;51.17;35.37;;;;;;;;;;4940004;29;20034;-91
2023/01/07 10:39:52;;;;;;;49.08;32.78;;;;;;;;;;4939673;29;20028;-90
2023/01/07 10:42:18;;;;;;;46.08;32.33;;;;;;;;;;4939543;29;20460;-89
2023/01/07 10:45:00;;;;;;;60.47;37.88;;;;;;;;;;4939509;29;20115;-90
2023/01/07 10:47:45;;;;;;;53.60;37.47;;;;;;;;;;4939624;29;20118;-89
2023/01/07 10:50:30;;;;;;;104.13;70.80;;;;;;;;;;4939278;29;20491;-89
2023/01/07 10:52:56;;;;;;;85.18;59.20;;;;;;;;;;4936044;29;20126;-89
2023/01/07 10:55:34;;;;;;;64.55;43.80;;;;;;;;;;4919330;29;20048;-88
2023/01/07 11:04:17;;;;;;;70.63;47.47;;;;;;;;;;4919021;29;20382;-89
2023/01/07 11:07:14;;;;;;;82.32;53.85;;;;;;;;;;4903142;29;20044;-90
2023/01/07 11:12:46;;;;;;;65.07;43.80;;;;;;;;;;4919181;29;20107;-89
2023/01/07 11:15:15;;;;;;;73.70;48.40;;;;;;;;;;4903008;29;20102;-86
2023/01/07 11:21:29;;;;;;;57.42;38.03;;;;;;;;;;4897716;29;20124;-87
2023/01/07 11:27:17;;;;;;;42.08;27.83;;;;;;;;;;4887306;29;20052;-90
2023/01/07 11:29:44;;;;;;;31.02;22.27;;;;;;;;;;4932379;29;20114;-90
2023/01/07 11:32:21;;;;;;;33.97;22.92;;;;;;;;;;4941405;29;20020;-90
2023/01/07 11:34:50;;;;;;;35.13;22.95;;;;;;;;;;4924442;29;20479;-89
2023/01/07 11:37:37;;;;;;;34.55;23.75;;;;;;;;;;4925187;29;20035;-89
2023/01/07 11:40:05;;;;;;;28.95;22.67;;;;;;;;;;4929512;29;20035;-89
2023/01/07 11:42:37;;;;;;;29.73;20.17;;;;;;;;;;4935686;29;20051;-88
2023/01/07 11:45:21;;;;;;;37.40;21.90;;;;;;;;;;4902969;29;20024;-88
2023/01/07 11:47:49;;;;;;;32.80;22.17;;;;;;;;;;4902913;29;20039;-89
2023/01/07 11:50:41;;;;;;;31.23;20.08;;;;;;;;;;4928561;29;20102;-88
2023/01/07 11:53:13;;;;;;;40.63;26.27;;;;;;;;;;4938123;29;20048;-89
2023/01/07 11:55:40;;;;;;;34.45;23.33;;;;;;;;;;4926810;29;20754;-89
2023/01/07 11:58:17;;;;;;;28.70;22.10;;;;;;;;;;4926807;29;20091;-88
2023/01/07 12:00:54;;;;;;;37.08;22.70;;;;;;;;;;4910870;29;20035;-90
2023/01/07 12:25:44;;;;;;;38.90;29.08;;;;;;;;;;4876236;29;20044;-86
2023/01/07 12:28:11;;;;;;;41.78;29.33;;;;;;;;;;4882127;29;20488;-86
2023/01/07 12:31:12;;;;;;;37.55;28.67;;;;;;;;;;4896726;29;20028;-85
2023/01/07 12:33:50;;;;;;;40.97;28.15;;;;;;;;;;4863657;29;20124;-83
2023/01/07 12:36:22;;;;;;;35.25;23.77;;;;;;;;;;4897539;29;20067;-83
2023/01/07 12:38:49;;;;;;;27.65;18.73;;;;;;;;;;4901888;29;20028;-86
2023/01/07 12:41:26;;;;;;;20.17;14.18;;;;;;;;;;4902524;29;20027;-86
2023/01/07 12:44:04;;;;;;;18.13;12.20;;;;;;;;;;4902292;29;20034;-84
2023/01/07 12:46:35;;;;;;;28.88;18.95;;;;;;;;;;4906038;29;20028;-85
2023/01/07 12:49:03;;;;;;;22.10;15.63;;;;;;;;;;4919444;29;20042;-83
2023/01/07 12:51:43;;;;;;;24.73;15.50;;;;;;;;;;4910931;29;20052;-85
2023/01/07 12:54:19;;;;;;;20.63;13.40;;;;;;;;;;4901913;29;20506;-85
2023/01/07 12:56:55;;;;;;;23.10;14.27;;;;;;;;;;4902021;29;20020;-86
2023/01/07 12:59:24;;;;;;;18.55;13.85;;;;;;;;;;4901827;29;20028;-85
2023/01/07 13:02:01;;;;;;;20.27;14.07;;;;;;;;;;4901924;29;20020;-86
2023/01/07 13:04:30;;;;;;;28.00;19.17;;;;;;;;;;4901561;29;20028;-84
2023/01/07 13:07:08;;;;;;;25.73;16.67;;;;;;;;;;4900969;29;20028;-84
2023/01/07 13:09:41;;;;;;;21.02;13.93;;;;;;;;;;4901186;29;20024;-84
2023/01/07 13:15:00;;;;;;;23.50;16.80;;;;;;;;;;4918358;29;20051;-84
2023/01/07 13:17:27;;;;;;;20.98;15.18;;;;;;;;;;4901919;29;20020;-85
2023/01/07 13:19:54;;;;;;;25.25;16.05;;;;;;;;;;4901530;29;20055;-85
2023/01/07 13:22:51;;;;;;;18.67;14.55;;;384.20;2304.00;;;;;;4910567;29;20063;-85
2023/01/07 13:25:24;;;;;;;23.17;16.30;;;;;;;;;;4920404;29;20024;-85
2023/01/07 13:28:10;;;;;;;23.70;16.05;;;;;;;;;;4919393;29;20030;-83
2023/01/07 13:30:48;;;;;;;25.23;16.40;;;;;;;;;;4919753;29;20034;-85
2023/01/07 13:33:23;;;;;;;22.10;16.15;;;;;;;;;;4920210;29;20036;-84
2023/01/07 13:36:08;;;;;;;22.05;14.85;;;;;;;;;;4920021;29;20055;-85
2023/01/07 13:38:53;;;;;;;26.33;17.42;;;;;;;;;;4919791;29;20034;-84
2023/01/07 13:41:28;;;;;;;18.13;13.48;;;;;;;;;;4919283;29;20109;-84
2023/01/07 13:44:10;;;;;;;19.15;12.68;;;;;;;;;;4920215;29;20024;-86
2023/01/07 13:46:41;;;;;;;17.35;12.57;;;;;;;;;;4919760;29;20040;-86
2023/01/07 13:49:23;;;;;;;20.70;13.50;;;;;;;;;;4919632;29;20145;-86
2023/01/07 13:52:13;;;;;;;21.70;14.90;;;;;;;;;;4918345;29;20032;-86
2023/01/07 13:55:31;;;;;;;19.10;14.25;;;;;;;;;;4916303;29;20036;-86
2023/01/07 14:07:44;;;;;;;;;;;;;;;;;;4866252;29;20086;-85
2023/01/07 14:10:17;;;;;;;57.10;32.22;;;;;;;;;;4847684;29;19998;-85
2023/01/07 14:13:03;;;;;;;41.83;26.13;;;;;;;;;;4848199;29;20068;-85
2023/01/07 14:15:39;;;;;;;34.85;23.73;;;;;;;;;;4882704;29;20130;-85
2023/01/07 14:18:13;;;;;;;34.72;22.88;;;;;;;;;;4923931;29;20027;-86
2023/01/07 14:20:42;;;;;;;38.15;26.02;;;;;;;;;;4923703;29;20032;-86
2023/01/07 14:23:18;;;;;;;33.65;24.45;;;;;;;;;;4923117;29;20502;-86
2023/01/07 14:25:44;;;;;;;35.72;22.45;;;;;;;;;;4923696;29;20119;-85
2023/01/07 14:28:19;;;;;;;35.30;22.60;;;;;;;;;;4923517;29;20075;-86
2023/01/07 14:30:45;;;;;;;32.40;23.80;;;;;;;;;;4923224;29;20028;-85
2023/01/07 14:33:18;;;;;;;37.17;26.05;;;;;;;;;;4940461;29;20038;-86
2023/01/07 14:35:52;;;;;;;46.47;30.33;;;;;;;;;;4923411;29;20117;-84
2023/01/07 14:38:33;;;;;;;53.33;37.03;;;;;;;;;;4923482;29;20095;-85
2023/01/07 14:41:02;;;;;;;62.08;42.15;;;;;;;;;;4923325;29;20024;-85
2023/01/07 14:44:01;;;;;;;72.85;47.83;;;;;;;;;;4940528;29;20034;-86
2023/01/07 14:46:27;;;;;;;67.63;46.05;;;;;;;;;;4922968;29;20040;-85
2023/01/07 14:49:02;;;;;;;62.53;42.70;;;;;;;;;;4923270;29;20034;-85
2023/01/07 14:51:58;;;;;;;75.22;53.55;;;307.80;2304.00;;;;;;4923106;29;20050;-86
2023/01/07 14:54:27;;;;;;;56.35;39.60;;;;;;;;;;4923504;29;20447;-86
2023/01/07 14:56:56;;;;;;;53.63;38.17;;;;;;;;;;4923108;29;20079;-88
2023/01/07 14:59:41;;;;;;;65.38;44.85;;;;;;;;;;4922978;29;20119;-88
2023/01/07 15:02:39;;;;;;;64.20;44.75;;;;;;;;;;4923067;29;20071;-89
2023/01/07 15:05:25;;;;;;;55.83;39.15;;;;;;;;;;4872101;29;20067;-88
2023/01/07 15:15:59;;;;;;;47.28;31.45;;;;;;;;;;4923208;29;20035;-88
2023/01/07 15:16:20;;;;;;;37.50;26.08;;;;;;;;;;4939873;29;20047;-88
2023/01/07 15:18:47;;;;;;;38.90;27.10;;;;;;;;;;4939662;29;20028;-89
2023/01/07 15:21:21;;;;;;;31.27;20.88;;;;;;;;;;4922666;29;20131;-88
2023/01/07 15:23:54;;;;;;;35.38;25.20;;;;;;;;;;4922684;29;20039;-89
2023/01/07 15:26:46;;;;;;;41.72;29.80;;;;;;;;;;4922800;29;20527;-88
2023/01/07 15:29:44;;;;;;;50.75;37.80;;;256.70;2252.80;;;;;;4887402;29;20027;-89
2023/01/07 15:32:32;;;;;;;61.47;42.67;;;;;;;;;;4922287;29;20036;-89
2023/01/07 15:35:06;;;;;;;73.93;52.55;;;256.20;2252.80;;;;;;4922581;29;20381;-89
2023/01/07 15:37:32;;;;;;;83.32;60.92;;;;;;;;;;4922751;29;20491;-88
2023/01/07 15:39:58;;;;;;;95.63;69.68;;;;;;;;;;4939363;29;20027;-88
2023/01/07 15:42:26;;;;;;;108.03;77.65;;;256.20;2252.80;;;;;;4915961;29;20025;-89
2023/01/07 15:44:57;;;;;;;114.18;77.10;;;256.00;2252.80;;;;;;4908514;29;20484;-88
2023/01/07 15:47:31;;;;;;;114.45;76.35;;;231.30;2252.80;;;;;;4902905;29;20057;-88
2023/01/07 15:50:10;;;;;;;118.40;81.25;;;231.20;2252.80;;;;;;4903704;29;20120;-89
2023/01/07 15:52:36;;;;;;;103.28;66.82;;;231.20;2252.80;;;;;;4920083;29;20111;-88
2023/01/07 15:55:58;;;;;;;92.93;66.55;;;231.10;2252.80;;;;;;4903538;29;20107;-89
2023/01/07 15:58:44;;;;;;;90.28;60.55;;;230.90;2252.80;;;;;;4809953;29;20034;-90
2023/01/07 16:01:21;;;;;;;62.58;46.13;;;230.90;2252.80;;;;;;4898453;29;20047;-90
2023/01/07 16:03:50;;;;;;;48.78;36.72;;;230.80;2252.80;;;;;;4903353;29;20040;-88
2023/01/07 16:06:44;;;;;;;41.70;29.67;;;230.80;2252.80;;;;;;4913364;29;20030;-86
2023/01/07 16:09:16;;;;;;;71.30;41.83;;;230.80;2252.80;;;;;;4911918;29;20042;-84
2023/01/07 16:11:42;;;;;;;66.25;37.70;;;230.70;2252.80;;;;;;4920901;29;20027;-84
2023/01/07 16:14:27;;;;;;;63.88;35.38;;;230.60;2252.80;;;;;;4912503;29;20047;-83
2023/01/07 16:17:14;;;;;;;92.18;47.85;;;230.50;2252.80;;;;;;4918463;29;20634;-84
2023/01/07 16:19:40;;;;;;;95.38;50.78;;;;;;;;;;4902002;29;20028;-85
2023/01/07 16:22:07;;;;;;;82.53;46.10;;;;;;;;;;4918179;29;20051;-85
2023/01/07 16:24:33;;;;;;;104.45;61.13;;;;;;;;;;4901720;29;20035;-87
2023/01/07 16:27:02;;;;;;;136.80;84.93;;;;;;;;;;4902414;29;20024;-86
2023/01/07 16:29:30;;;;;;;65.07;42.38;;;;;;;;;;4901833;29;20024;-85
2023/01/07 16:31:57;;;;;;;54.05;35.67;;;;;;;;;;4902065;29;20025;-88
2023/01/07 16:34:23;;;;;;;42.67;28.10;;;;;;;;;;4901826;29;20491;-80
2023/01/07 16:36:51;;;;;;;49.75;30.88;;;;;;;;;;4900330;29;20082;-85
2023/01/07 16:39:20;;;;;;;49.35;33.10;;;;;;;;;;4901429;29;20087;-86
2023/01/07 16:41:47;;;;;;;51.25;35.65;;;;;;;;;;4901476;29;20031;-86
2023/01/07 16:44:31;;;;;;;111.63;70.18;;;;;;;;;;4901713;29;20024;-85
2023/01/07 16:47:05;;;;;;;203.82;128.50;;;;;;;;;;4901698;29;20028;-86
2023/01/07 16:49:31;;;;;;;116.97;77.03;;;;;;;;;;4901538;29;20629;-87
2023/01/07 16:52:05;;;;;;;158.05;98.90;;;;;;;;;;4901714;29;20023;-88
2023/01/07 16:54:36;;;;;;;162.45;103.38;;;;;;;;;;4901586;29;20588;-84
2023/01/07 16:57:11;;;;;;;157.88;104.55;;;;;;;;;;4918090;29;20088;-86
2023/01/07 16:59:37;;;;;;;215.05;138.38;;;;;;;;;;4901693;29;20034;-89
2023/01/07 17:02:23;;;;;;;186.48;123.13;;;;;;;;;;4901430;29;20028;-88
2023/01/07 17:04:49;;;;;;;213.55;136.30;;;205.20;2252.80;;;;;;4901320;29;20024;-82
2023/01/07 17:07:21;;;;;;;224.80;143.82;;;;;;;;;;4918688;29;20376;-85
2023/01/07 17:09:47;;;;;;;186.00;124.85;;;;;;;;;;4900910;29;20028;-87
2023/01/07 17:12:32;;;;;;;167.50;105.80;;;;;;;;;;4901267;29;20028;-83
2023/01/07 17:14:59;;;;;;;212.18;133.20;;;;;;;;;;4901368;29;20551;-83
2023/01/07 17:17:30;;;;;;;281.90;169.70;;;;;;;;;;4901068;29;20035;-88
2023/01/07 17:20:01;;;;;;;334.00;201.57;;;;;;;;;;4908851;29;20030;-90
2023/01/07 17:22:31;;;;;;;320.88;194.30;;;;;;;;;;4917799;29;20044;-89
2023/01/07 17:25:14;;;;;;;365.20;217.60;;;;;;;;;;4914373;29;20030;-88
2023/01/07 17:27:59;;;;;;;430.80;260.80;;;;;;;;;;4918948;29;20050;-90
2023/01/07 17:30:31;;;;;;;338.85;216.05;;;;;;;;;;4916096;29;20028;-89
2023/01/07 17:32:57;;;;;;;313.75;199.07;;;;;;;;;;4911411;29;20043;-88
2023/01/07 17:35:24;;;;;;;315.75;185.30;;;;;;;;;;4909418;29;20066;-86
2023/01/07 17:37:51;;;;;;;330.83;192.73;;;;;;;;;;4919804;29;20031;-88
2023/01/07 17:40:18;;;;;;;361.30;206.25;;;;;;;;;;4918940;29;20126;-89
2023/01/07 17:45:29;;;;;;;383.33;243.40;;;;;;;;;;4930854;29;20042;-91
2023/01/07 17:47:56;;;;;;;333.83;204.32;;;179.60;2252.80;;;;;;4918494;29;20031;-90
2023/01/07 17:50:22;;;;;;;279.77;173.90;;;179.50;2252.80;;;;;;4908473;29;20503;-88
2023/01/07 17:52:50;;;;;;;284.85;173.55;;;179.50;2252.80;;;;;;4907982;29;20034;-90
2023/01/07 17:55:28;;;;;;;296.48;184.40;;;179.40;2252.80;;;;;;4916291;29;20025;-90
2023/01/07 17:57:54;;;;;;;326.83;204.90;;;180.10;2252.80;;;;;;4903480;29;20115;-89
2023/01/07 18:00:23;;;;;;;362.98;226.18;;;179.20;2252.80;;;;;;4903001;29;20134;-86
2023/01/07 18:02:49;;;;;;;359.42;227.57;;;154.50;2252.80;;;;;;4901098;29;20028;-88
2023/01/07 18:05:17;;;;;;;364.73;230.25;;;;;;;;;;4901022;29;20032;-89
2023/01/07 18:07:43;;;;;;;327.23;206.73;;;;;;;;;;4900733;29;20031;-89
2023/01/07 18:10:11;;;;;;;311.85;201.30;;;;;;;;;;4901270;29;20024;-91
2023/01/07 18:12:39;;;;;;;348.67;225.18;;;;;;;;;;4900687;29;20028;-91
2023/01/07 18:15:11;;;;;;;344.98;225.52;;;;;;;;;;4900611;29;20021;-91
2023/01/07 18:17:37;;;;;;;344.88;219.35;;;;;;;;;;4900982;29;20067;-91
2023/01/07 18:20:03;;;;;;;324.67;215.40;;;;;;;;;;4900985;29;20036;-88
2023/01/07 18:22:29;;;;;;;389.15;249.63;;;;;;;;;;4900897;29;20048;-91
2023/01/07 18:24:55;;;;;;;410.17;263.85;;;;;;;;;;4901049;29;20028;-91
2023/01/07 18:27:35;;;;;;;485.88;329.02;;;;;;;;;;4900939;29;20032;-92
2023/01/07 18:30:01;;;;;;;552.60;370.17;;;;;;;;;;4900692;29;20033;-91
2023/01/07 18:32:27;;;;;;;515.17;347.25;;;;;;;;;;4901117;29;20084;-90
2023/01/07 18:34:53;;;;;;;486.05;320.35;;;;;;;;;;4902158;29;20083;-90
2023/01/07 18:37:19;;;;;;;440.95;289.05;;;;;;;;;;4902229;29;20512;-90
2023/01/07 18:39:45;;;;;;;450.25;296.23;;;;;;;;;;4901347;29;20032;-92
2023/01/07 18:42:11;;;;;;;490.10;327.25;;;154.40;2252.80;;;;;;4901102;29;20024;-91
2023/01/07 18:44:37;;;;;;;480.40;320.40;;;154.30;2252.80;;;;;;4901930;29;20494;-89
2023/01/07 18:47:03;;;;;;;430.73;281.60;;;154.10;2252.80;;;;;;4905245;29;20039;-91
2023/01/07 18:49:28;;;;;;;406.73;255.50;;;154.00;2252.80;;;;;;4906715;29;20055;-89
2023/01/07 18:51:54;;;;;;;384.77;247.63;;;154.00;2252.80;;;;;;4908616;29;20031;-88
2023/01/07 18:54:20;;;;;;;359.13;231.05;;;154.00;2252.80;;;;;;4919256;29;20039;-87
2023/01/07 18:56:46;;;;;;;382.58;244.82;;;154.00;2252.80;;;;;;4931748;29;20372;-86
2023/01/07 18:59:12;;;;;;;391.30;257.17;;;154.10;2252.80;;;;;;4933241;29;20052;-90
2023/01/07 19:01:38;;;;;;;400.83;268.77;;;154.00;2252.80;;;;;;4932708;29;20030;-87
2023/01/07 19:04:05;;;;;;;409.83;267.40;;;154.00;2252.80;;;;;;4929089;29;20028;-88
2023/01/07 19:06:31;;;;;;;305.00;202.45;;;153.90;2252.80;;;;;;4923216;29;20051;-88
2023/01/07 19:08:57;;;;;;;282.10;183.98;;;153.90;2252.80;;;;;;4922728;29;20028;-88
2023/01/07 19:11:22;;;;;;;308.70;201.60;;;153.90;2252.80;;;;;;4922966;29;20432;-89
2023/01/07 19:13:48;;;;;;;354.17;237.18;;;153.90;2252.80;;;;;;4918673;29;20568;-89
2023/01/07 19:16:14;;;;;;;360.67;240.98;;;153.80;2252.80;;;;;;4903743;29;20423;-91
2023/01/07 19:18:40;;;;;;;370.83;244.57;;;153.80;2252.80;;;;;;4907880;29;20034;-88
2023/01/07 19:21:09;;;;;;;298.27;197.15;;;153.70;2252.80;;;;;;4902980;29;20056;-90
2023/01/07 19:23:35;;;;;;;419.70;267.35;;;128.90;2252.80;;;;;;4916401;29;20024;-89
2023/01/07 19:26:02;;;;;;;401.98;261.33;;;;;;;;;;4903490;29;20453;-89
2023/01/07 19:28:30;;;;;;;384.15;259.52;;;;;;;;;;4903740;29;20028;-89
2023/01/07 19:30:56;;;;;;;350.63;235.32;;;;;;;;;;4903501;29;20364;-90
2023/01/07 19:33:22;;;;;;;324.77;214.30;;;;;;;;;;4903596;29;20036;-90
2023/01/07 19:35:48;;;;;;;306.17;203.80;;;;;;;;;;4903543;29;20031;-91
2023/01/07 19:38:15;;;;;;;325.98;212.55;;;;;;;;;;4908432;29;20032;-89
2023/01/07 19:40:44;;;;;;;363.42;234.00;;;;;;;;;;4903558;29;20528;-91
2023/01/07 19:43:11;;;;;;;372.83;235.93;;;;;;;;;;4910887;29;20047;-90
2023/01/07 19:45:38;;;;;;;368.90;237.88;;;153.60;2252.80;;;;;;4932947;29;20032;-89
2023/01/07 19:48:05;;;;;;;274.23;176.85;;;;;;;;;;4908976;29;20063;-91
2023/01/07 19:50:31;;;;;;;279.98;173.98;;;;;;;;;;4907364;29;20084;-91
2023/01/07 19:52:58;;;;;;;381.17;240.82;;;;;;;;;;4921150;29;20031;-91
2023/01/07 19:55:24;;;;;;;340.90;220.40;;;128.50;2252.80;;;;;;4922257;29;20460;-90
2023/01/07 19:57:50;;;;;;;361.35;231.77;;;;;;;;;;4921992;29;20095;-90
2023/01/07 20:00:16;;;;;;;396.85;249.45;;;;;;;;;;4921821;29;20031;-92
2023/01/07 20:02:43;;;;;;;387.35;237.93;;;;;;;;;;4908506;29;20076;-92
2023/01/07 20:05:08;;;;;;;380.75;242.60;;;128.50;2252.80;;;;;;4903006;29;20027;-90
2023/01/07 20:07:34;;;;;;;364.02;232.90;;;128.30;2252.80;;;;;;4902833;29;20036;-91
2023/01/07 20:10:01;;;;;;;362.25;232.85;;;;;;;;;;4902623;29;20416;-86
2023/01/07 20:12:27;;;;;;;339.33;220.32;;;;;;;;;;4901691;29;20024;-87
2023/01/07 20:14:53;;;;;;;246.75;165.95;;;;;;;;;;4906037;29;20040;-89
2023/01/07 20:17:20;;;;;;;231.93;152.80;;;;;;;;;;4902355;29;20044;-88
2023/01/07 20:19:46;;;;;;;211.00;135.80;;;;;;;;;;4902129;29;20066;-89
2023/01/07 20:34:57;;;;;;;367.77;235.10;;;;;;;;;;4942396;28;20047;-87
2023/01/07 20:37:26;;;;;;;352.45;235.52;;;;;;;;;;4925908;29;20016;-89
2023/01/07 20:39:53;;;;;;;357.17;234.35;;;;;;;;;;4894433;29;20100;-91
2023/01/07 20:42:20;;;;;;;331.60;207.48;;;;;;;;;;4902291;29;20032;-91
2023/01/07 20:44:46;;;;;;;290.92;183.82;;;;;;;;;;4929130;29;20031;-91
2023/01/07 20:47:13;;;;;;;381.00;232.80;;;;;;;;;;4921258;29;20062;-91
2023/01/07 20:49:40;;;;;;;435.05;262.17;;;;;;;;;;4920647;29;20472;-91
2023/01/07 20:52:06;;;;;;;402.98;246.55;;;;;;;;;;4921043;29;20024;-92
2023/01/07 20:54:33;;;;;;;414.38;263.33;;;;;;;;;;4921150;29;20031;-91
2023/01/07 20:56:59;;;;;;;306.27;194.48;;;;;;;;;;4921002;29;20027;-90
2023/01/07 21:02:28;;;;;;;;;;;;;;;;;;4938288;29;20043;-91
2023/01/07 21:07:58;;;;;;;289.33;158.07;;;;;;;;;;4938051;29;20074;-89
2023/01/07 21:16:56;;;;;;;181.85;118.20;;;;;;;;;;4937279;29;20034;-90
2023/01/07 21:23:14;;;;;;;211.18;131.85;;;;;;;;;;4937090;29;20038;-90
2023/01/07 21:26:27;;;;;;;246.63;155.25;;;;;;;;;;4879047;29;20520;-91
2023/01/07 21:35:57;;;;;;;347.75;202.50;;;;;;;;;;4881650;29;20047;-91
2023/01/07 21:39:02;;;;;;;301.88;177.93;;;;;;;;;;4841990;29;20030;-89
2023/01/07 21:50:43;;;;;;;230.93;139.10;;;;;;;;;;4878705;29;20109;-90
2023/01/07 21:59:23;;;;;;;;;;;;;;;;;;4937437;29;20035;-85
2023/01/07 22:23:32;;;;;;;244.93;144.77;;;;;;;;;;4944361;23;20060;-83
2023/01/07 22:41:04;;;;;;;170.38;105.68;;;;;;;;;;4959580;28;20828;-85
